West Somerset, Kentucky
Current Conditions -  °F | °C
As of 3:35 PM on Thursday 23 Oct 2014 (Local Time) from KSME Reporting Station
Clear Clear  
Wind Chill: 61°   Ceiling: Unl
Heat Index: 61°   Visibility: 10mi
Dew Point: 39°   Wind: 0mph
Humidity: 45%   Direction: NA
Pressure: 30.15"   Gusts: NA
Location:  37.09°N, 84.6°W
Report Text: KSME 231935Z AUTO 00000KT 10SM CLR 16/04 A3015 RMK AO2
Loading
Personal Weather Stations






























Interactive Weather Map
Tropical Storm Tracking
New forecast layout! Learn more

10-Day Weather Forecast

Advertisements
Track Severe Weather on mobile